sensor_id;sensor_type;location;lat;lon;timestamp;P1;durP1;ratioP1;P2;durP2;ratioP2
43710;SDS011;29309;42.682;23.372;2023-01-16T00:00:00;50.88;;;21.90;;
43710;SDS011;29309;42.682;23.372;2023-01-16T00:02:26;54.75;;;24.52;;
43710;SDS011;29309;42.682;23.372;2023-01-16T00:04:51;55.42;;;24.60;;
43710;SDS011;29309;42.682;23.372;2023-01-16T00:07:17;49.33;;;24.42;;
43710;SDS011;29309;42.682;23.372;2023-01-16T00:09:42;52.55;;;24.30;;
43710;SDS011;29309;42.682;23.372;2023-01-16T00:12:07;49.92;;;22.60;;
43710;SDS011;29309;42.682;23.372;2023-01-16T00:14:33;48.85;;;22.65;;
43710;SDS011;29309;42.682;23.372;2023-01-16T00:16:58;45.72;;;22.70;;
43710;SDS011;29309;42.682;23.372;2023-01-16T00:19:24;52.13;;;21.85;;
43710;SDS011;29309;42.682;23.372;2023-01-16T00:21:49;48.67;;;22.00;;
43710;SDS011;29309;42.682;23.372;2023-01-16T00:24:14;42.72;;;21.55;;
43710;SDS011;29309;42.682;23.372;2023-01-16T00:26:40;46.95;;;21.10;;
43710;SDS011;29309;42.682;23.372;2023-01-16T00:29:05;42.72;;;20.38;;
43710;SDS011;29309;42.682;23.372;2023-01-16T00:31:31;43.30;;;21.85;;
43710;SDS011;29309;42.682;23.372;2023-01-16T00:33:56;44.95;;;21.50;;
43710;SDS011;29309;42.682;23.372;2023-01-16T00:36:21;45.72;;;21.60;;
43710;SDS011;29309;42.682;23.372;2023-01-16T00:38:47;42.63;;;20.13;;
43710;SDS011;29309;42.682;23.372;2023-01-16T00:41:12;41.55;;;20.13;;
43710;SDS011;29309;42.682;23.372;2023-01-16T00:43:38;39.97;;;18.42;;
43710;SDS011;29309;42.682;23.372;2023-01-16T00:46:03;37.20;;;19.30;;
43710;SDS011;29309;42.682;23.372;2023-01-16T00:48:29;48.50;;;19.95;;
43710;SDS011;29309;42.682;23.372;2023-01-16T00:50:55;42.30;;;18.27;;
43710;SDS011;29309;42.682;23.372;2023-01-16T00:53:20;45.13;;;19.33;;
43710;SDS011;29309;42.682;23.372;2023-01-16T00:55:46;39.97;;;18.60;;
43710;SDS011;29309;42.682;23.372;2023-01-16T00:58:11;48.70;;;21.48;;
43710;SDS011;29309;42.682;23.372;2023-01-16T01:00:37;43.03;;;18.50;;
43710;SDS011;29309;42.682;23.372;2023-01-16T01:03:03;42.80;;;19.52;;
43710;SDS011;29309;42.682;23.372;2023-01-16T01:05:29;41.38;;;20.02;;
43710;SDS011;29309;42.682;23.372;2023-01-16T01:07:54;42.08;;;19.95;;
43710;SDS011;29309;42.682;23.372;2023-01-16T01:10:20;41.70;;;20.13;;
43710;SDS011;29309;42.682;23.372;2023-01-16T01:12:45;35.67;;;18.20;;
43710;SDS011;29309;42.682;23.372;2023-01-16T01:15:11;41.58;;;18.95;;
43710;SDS011;29309;42.682;23.372;2023-01-16T01:17:36;38.60;;;17.73;;
43710;SDS011;29309;42.682;23.372;2023-01-16T01:20:02;40.50;;;17.27;;
43710;SDS011;29309;42.682;23.372;2023-01-16T01:22:28;36.85;;;17.75;;
43710;SDS011;29309;42.682;23.372;2023-01-16T01:24:54;38.45;;;18.73;;
43710;SDS011;29309;42.682;23.372;2023-01-16T01:27:19;43.00;;;18.52;;
43710;SDS011;29309;42.682;23.372;2023-01-16T01:29:45;45.45;;;19.80;;
43710;SDS011;29309;42.682;23.372;2023-01-16T01:32:10;38.85;;;17.85;;
43710;SDS011;29309;42.682;23.372;2023-01-16T01:34:36;37.63;;;17.98;;
43710;SDS011;29309;42.682;23.372;2023-01-16T01:37:02;41.10;;;17.88;;
43710;SDS011;29309;42.682;23.372;2023-01-16T01:39:29;34.25;;;17.73;;
43710;SDS011;29309;42.682;23.372;2023-01-16T01:41:55;39.00;;;17.95;;
43710;SDS011;29309;42.682;23.372;2023-01-16T01:44:51;40.75;;;17.83;;
43710;SDS011;29309;42.682;23.372;2023-01-16T01:47:20;34.60;;;15.20;;
43710;SDS011;29309;42.682;23.372;2023-01-16T01:49:52;35.92;;;16.05;;
43710;SDS011;29309;42.682;23.372;2023-01-16T01:52:21;33.83;;;15.60;;
43710;SDS011;29309;42.682;23.372;2023-01-16T01:54:50;42.45;;;16.58;;
43710;SDS011;29309;42.682;23.372;2023-01-16T01:57:34;34.92;;;16.08;;
43710;SDS011;29309;42.682;23.372;2023-01-16T02:02:41;35.17;;;15.63;;
43710;SDS011;29309;42.682;23.372;2023-01-16T02:05:12;39.03;;;16.23;;
43710;SDS011;29309;42.682;23.372;2023-01-16T02:07:44;36.67;;;17.08;;
43710;SDS011;29309;42.682;23.372;2023-01-16T02:10:22;36.42;;;16.88;;
43710;SDS011;29309;42.682;23.372;2023-01-16T02:12:51;34.38;;;16.88;;
43710;SDS011;29309;42.682;23.372;2023-01-16T02:15:19;37.28;;;16.17;;
43710;SDS011;29309;42.682;23.372;2023-01-16T02:17:47;38.25;;;16.48;;
43710;SDS011;29309;42.682;23.372;2023-01-16T02:20:32;40.80;;;16.92;;
43710;SDS011;29309;42.682;23.372;2023-01-16T02:40:10;37.67;;;17.98;;
43710;SDS011;29309;42.682;23.372;2023-01-16T02:48:06;36.55;;;15.65;;
43710;SDS011;29309;42.682;23.372;2023-01-16T02:50:50;33.78;;;16.92;;
43710;SDS011;29309;42.682;23.372;2023-01-16T02:55:54;36.67;;;15.80;;
43710;SDS011;29309;42.682;23.372;2023-01-16T02:58:22;38.22;;;16.88;;
43710;SDS011;29309;42.682;23.372;2023-01-16T03:00:53;42.58;;;17.25;;
43710;SDS011;29309;42.682;23.372;2023-01-16T03:06:44;38.55;;;16.08;;
43710;SDS011;29309;42.682;23.372;2023-01-16T03:25:34;48.45;;;19.60;;
43710;SDS011;29309;42.682;23.372;2023-01-16T03:31:04;55.85;;;23.75;;
43710;SDS011;29309;42.682;23.372;2023-01-16T03:36:20;57.72;;;27.55;;
43710;SDS011;29309;42.682;23.372;2023-01-16T03:38:56;58.08;;;22.63;;
43710;SDS011;29309;42.682;23.372;2023-01-16T03:41:24;58.13;;;24.00;;
43710;SDS011;29309;42.682;23.372;2023-01-16T03:43:54;57.13;;;27.33;;
43710;SDS011;29309;42.682;23.372;2023-01-16T03:46:32;64.55;;;28.80;;
43710;SDS011;29309;42.682;23.372;2023-01-16T03:51:53;54.15;;;24.90;;
43710;SDS011;29309;42.682;23.372;2023-01-16T03:54:23;54.85;;;26.60;;
43710;SDS011;29309;42.682;23.372;2023-01-16T03:59:26;61.65;;;27.83;;
43710;SDS011;29309;42.682;23.372;2023-01-16T04:01:56;65.50;;;29.02;;
43710;SDS011;29309;42.682;23.372;2023-01-16T04:04:43;59.05;;;26.13;;
43710;SDS011;29309;42.682;23.372;2023-01-16T04:08:00;52.35;;;22.70;;
43710;SDS011;29309;42.682;23.372;2023-01-16T04:10:28;46.00;;;21.23;;
43710;SDS011;29309;42.682;23.372;2023-01-16T04:13:00;47.13;;;20.38;;
43710;SDS011;29309;42.682;23.372;2023-01-16T04:15:30;51.42;;;22.83;;
43710;SDS011;29309;42.682;23.372;2023-01-16T04:17:58;50.97;;;23.25;;
43710;SDS011;29309;42.682;23.372;2023-01-16T04:20:24;54.70;;;21.15;;
43710;SDS011;29309;42.682;23.372;2023-01-16T04:22:52;51.08;;;23.55;;
43710;SDS011;29309;42.682;23.372;2023-01-16T04:25:18;52.17;;;22.05;;
43710;SDS011;29309;42.682;23.372;2023-01-16T04:27:45;52.00;;;20.48;;
43710;SDS011;29309;42.682;23.372;2023-01-16T04:30:10;48.05;;;21.40;;
43710;SDS011;29309;42.682;23.372;2023-01-16T04:32:36;40.80;;;18.80;;
43710;SDS011;29309;42.682;23.372;2023-01-16T04:35:02;48.53;;;20.75;;
43710;SDS011;29309;42.682;23.372;2023-01-16T04:37:28;49.75;;;20.30;;
43710;SDS011;29309;42.682;23.372;2023-01-16T04:39:54;47.05;;;20.77;;
43710;SDS011;29309;42.682;23.372;2023-01-16T04:42:19;52.17;;;20.33;;
43710;SDS011;29309;42.682;23.372;2023-01-16T04:44:45;51.63;;;21.25;;
43710;SDS011;29309;42.682;23.372;2023-01-16T04:47:11;49.38;;;21.52;;
43710;SDS011;29309;42.682;23.372;2023-01-16T04:49:36;44.55;;;20.65;;
43710;SDS011;29309;42.682;23.372;2023-01-16T04:52:02;56.05;;;20.77;;
43710;SDS011;29309;42.682;23.372;2023-01-16T04:54:28;43.60;;;17.95;;
43710;SDS011;29309;42.682;23.372;2023-01-16T04:56:53;40.58;;;16.20;;
43710;SDS011;29309;42.682;23.372;2023-01-16T04:59:19;40.50;;;16.83;;
43710;SDS011;29309;42.682;23.372;2023-01-16T05:01:44;39.95;;;15.40;;
43710;SDS011;29309;42.682;23.372;2023-01-16T05:04:14;34.97;;;14.82;;
43710;SDS011;29309;42.682;23.372;2023-01-16T05:06:40;39.10;;;17.23;;
43710;SDS011;29309;42.682;23.372;2023-01-16T05:09:06;42.28;;;15.93;;
43710;SDS011;29309;42.682;23.372;2023-01-16T05:11:32;42.53;;;16.70;;
43710;SDS011;29309;42.682;23.372;2023-01-16T05:13:59;44.65;;;17.42;;
43710;SDS011;29309;42.682;23.372;2023-01-16T05:16:25;43.80;;;16.10;;
43710;SDS011;29309;42.682;23.372;2023-01-16T05:18:50;39.10;;;16.73;;
43710;SDS011;29309;42.682;23.372;2023-01-16T05:21:16;46.92;;;16.73;;
43710;SDS011;29309;42.682;23.372;2023-01-16T05:23:41;50.80;;;19.02;;
43710;SDS011;29309;42.682;23.372;2023-01-16T05:26:07;49.72;;;16.90;;
43710;SDS011;29309;42.682;23.372;2023-01-16T05:28:32;50.50;;;17.55;;
43710;SDS011;29309;42.682;23.372;2023-01-16T05:30:59;49.97;;;18.23;;
43710;SDS011;29309;42.682;23.372;2023-01-16T05:33:25;49.45;;;17.70;;
43710;SDS011;29309;42.682;23.372;2023-01-16T05:35:50;66.18;;;19.77;;
43710;SDS011;29309;42.682;23.372;2023-01-16T05:38:17;61.75;;;19.15;;
43710;SDS011;29309;42.682;23.372;2023-01-16T05:40:43;59.03;;;18.65;;
43710;SDS011;29309;42.682;23.372;2023-01-16T05:43:09;63.45;;;20.15;;
43710;SDS011;29309;42.682;23.372;2023-01-16T05:45:35;65.50;;;19.38;;
43710;SDS011;29309;42.682;23.372;2023-01-16T05:48:01;54.80;;;19.25;;
43710;SDS011;29309;42.682;23.372;2023-01-16T05:50:26;62.92;;;19.90;;
43710;SDS011;29309;42.682;23.372;2023-01-16T05:52:51;67.22;;;19.60;;
43710;SDS011;29309;42.682;23.372;2023-01-16T05:55:17;63.67;;;20.33;;
43710;SDS011;29309;42.682;23.372;2023-01-16T05:57:43;60.25;;;20.48;;
43710;SDS011;29309;42.682;23.372;2023-01-16T06:00:08;57.08;;;20.80;;
43710;SDS011;29309;42.682;23.372;2023-01-16T06:02:34;52.50;;;19.77;;
43710;SDS011;29309;42.682;23.372;2023-01-16T06:05:00;68.68;;;21.15;;
43710;SDS011;29309;42.682;23.372;2023-01-16T06:07:25;56.95;;;20.10;;
43710;SDS011;29309;42.682;23.372;2023-01-16T06:09:51;53.47;;;20.00;;
43710;SDS011;29309;42.682;23.372;2023-01-16T06:12:17;58.33;;;20.27;;
43710;SDS011;29309;42.682;23.372;2023-01-16T06:14:44;67.35;;;19.67;;
43710;SDS011;29309;42.682;23.372;2023-01-16T06:17:10;58.78;;;20.13;;
43710;SDS011;29309;42.682;23.372;2023-01-16T06:19:39;62.70;;;20.90;;
43710;SDS011;29309;42.682;23.372;2023-01-16T06:22:04;52.28;;;18.90;;
43710;SDS011;29309;42.682;23.372;2023-01-16T06:24:30;67.43;;;22.08;;
43710;SDS011;29309;42.682;23.372;2023-01-16T06:26:55;54.35;;;18.23;;
43710;SDS011;29309;42.682;23.372;2023-01-16T06:29:21;60.50;;;19.58;;
43710;SDS011;29309;42.682;23.372;2023-01-16T06:31:46;55.38;;;20.88;;
43710;SDS011;29309;42.682;23.372;2023-01-16T06:34:12;55.58;;;20.30;;
43710;SDS011;29309;42.682;23.372;2023-01-16T06:36:37;61.55;;;22.67;;
43710;SDS011;29309;42.682;23.372;2023-01-16T06:39:03;61.95;;;20.55;;
43710;SDS011;29309;42.682;23.372;2023-01-16T06:41:28;72.55;;;20.25;;
43710;SDS011;29309;42.682;23.372;2023-01-16T06:43:53;57.38;;;21.48;;
43710;SDS011;29309;42.682;23.372;2023-01-16T06:46:19;58.38;;;19.80;;
43710;SDS011;29309;42.682;23.372;2023-01-16T06:48:45;65.03;;;22.58;;
43710;SDS011;29309;42.682;23.372;2023-01-16T06:51:10;57.67;;;22.02;;
43710;SDS011;29309;42.682;23.372;2023-01-16T06:53:36;86.93;;;30.60;;
43710;SDS011;29309;42.682;23.372;2023-01-16T06:56:02;70.82;;;27.95;;
43710;SDS011;29309;42.682;23.372;2023-01-16T06:58:28;108.03;;;39.42;;
43710;SDS011;29309;42.682;23.372;2023-01-16T07:00:53;124.85;;;49.50;;
43710;SDS011;29309;42.682;23.372;2023-01-16T07:03:20;137.00;;;52.13;;
43710;SDS011;29309;42.682;23.372;2023-01-16T07:05:46;135.48;;;49.55;;
43710;SDS011;29309;42.682;23.372;2023-01-16T07:08:12;113.32;;;46.50;;
43710;SDS011;29309;42.682;23.372;2023-01-16T07:10:38;108.50;;;39.03;;
43710;SDS011;29309;42.682;23.372;2023-01-16T07:13:04;111.22;;;42.83;;
43710;SDS011;29309;42.682;23.372;2023-01-16T07:15:29;122.22;;;40.83;;
43710;SDS011;29309;42.682;23.372;2023-01-16T07:18:14;111.20;;;38.13;;
43710;SDS011;29309;42.682;23.372;2023-01-16T07:21:01;105.38;;;37.47;;
43710;SDS011;29309;42.682;23.372;2023-01-16T07:23:47;104.90;;;37.35;;
43710;SDS011;29309;42.682;23.372;2023-01-16T07:26:17;104.10;;;40.05;;
43710;SDS011;29309;42.682;23.372;2023-01-16T07:28:46;112.97;;;39.95;;
43710;SDS011;29309;42.682;23.372;2023-01-16T07:31:13;131.00;;;45.65;;
43710;SDS011;29309;42.682;23.372;2023-01-16T07:33:39;194.93;;;62.03;;
43710;SDS011;29309;42.682;23.372;2023-01-16T07:36:04;186.70;;;61.33;;
43710;SDS011;29309;42.682;23.372;2023-01-16T07:38:30;206.82;;;64.13;;
43710;SDS011;29309;42.682;23.372;2023-01-16T07:40:55;213.32;;;72.15;;
43710;SDS011;29309;42.682;23.372;2023-01-16T07:43:21;216.63;;;76.15;;
43710;SDS011;29309;42.682;23.372;2023-01-16T07:45:46;180.07;;;67.55;;
43710;SDS011;29309;42.682;23.372;2023-01-16T07:48:17;183.27;;;60.08;;
43710;SDS011;29309;42.682;23.372;2023-01-16T07:50:52;144.15;;;50.10;;
43710;SDS011;29309;42.682;23.372;2023-01-16T07:53:20;133.07;;;47.20;;
43710;SDS011;29309;42.682;23.372;2023-01-16T07:55:51;151.18;;;50.25;;
43710;SDS011;29309;42.682;23.372;2023-01-16T07:58:19;152.23;;;50.30;;
43710;SDS011;29309;42.682;23.372;2023-01-16T08:00:45;151.68;;;51.28;;
43710;SDS011;29309;42.682;23.372;2023-01-16T08:03:11;140.93;;;47.67;;
43710;SDS011;29309;42.682;23.372;2023-01-16T08:05:38;134.75;;;45.17;;
43710;SDS011;29309;42.682;23.372;2023-01-16T08:08:04;106.30;;;36.45;;
43710;SDS011;29309;42.682;23.372;2023-01-16T08:10:30;108.50;;;32.40;;
43710;SDS011;29309;42.682;23.372;2023-01-16T08:12:55;91.22;;;29.90;;
43710;SDS011;29309;42.682;23.372;2023-01-16T08:15:21;72.30;;;24.80;;
43710;SDS011;29309;42.682;23.372;2023-01-16T08:17:46;62.10;;;24.67;;
43710;SDS011;29309;42.682;23.372;2023-01-16T08:20:12;62.85;;;24.25;;
43710;SDS011;29309;42.682;23.372;2023-01-16T08:22:44;63.65;;;24.10;;
43710;SDS011;29309;42.682;23.372;2023-01-16T08:25:10;61.53;;;23.13;;
43710;SDS011;29309;42.682;23.372;2023-01-16T08:27:37;71.20;;;25.90;;
43710;SDS011;29309;42.682;23.372;2023-01-16T08:30:03;79.57;;;28.65;;
43710;SDS011;29309;42.682;23.372;2023-01-16T08:32:30;77.00;;;27.60;;
43710;SDS011;29309;42.682;23.372;2023-01-16T08:34:55;75.47;;;29.40;;
43710;SDS011;29309;42.682;23.372;2023-01-16T08:37:20;79.80;;;29.55;;
43710;SDS011;29309;42.682;23.372;2023-01-16T08:39:46;71.00;;;26.50;;
43710;SDS011;29309;42.682;23.372;2023-01-16T08:42:11;83.07;;;29.02;;
43710;SDS011;29309;42.682;23.372;2023-01-16T08:44:55;74.53;;;28.45;;
43710;SDS011;29309;42.682;23.372;2023-01-16T08:47:39;59.10;;;24.05;;
43710;SDS011;29309;42.682;23.372;2023-01-16T08:50:23;70.38;;;26.10;;
43710;SDS011;29309;42.682;23.372;2023-01-16T08:53:07;63.00;;;24.77;;
43710;SDS011;29309;42.682;23.372;2023-01-16T08:55:32;61.67;;;25.77;;
43710;SDS011;29309;42.682;23.372;2023-01-16T08:57:58;66.18;;;25.70;;
43710;SDS011;29309;42.682;23.372;2023-01-16T09:00:27;69.63;;;25.92;;
43710;SDS011;29309;42.682;23.372;2023-01-16T09:02:53;74.82;;;28.48;;
43710;SDS011;29309;42.682;23.372;2023-01-16T09:05:21;59.08;;;25.70;;
43710;SDS011;29309;42.682;23.372;2023-01-16T09:07:46;62.72;;;25.63;;
43710;SDS011;29309;42.682;23.372;2023-01-16T09:10:12;65.82;;;25.77;;
43710;SDS011;29309;42.682;23.372;2023-01-16T09:12:38;63.40;;;25.05;;
43710;SDS011;29309;42.682;23.372;2023-01-16T09:15:22;57.33;;;23.67;;
43710;SDS011;29309;42.682;23.372;2023-01-16T09:17:48;64.03;;;24.77;;
43710;SDS011;29309;42.682;23.372;2023-01-16T09:20:13;62.10;;;24.52;;
43710;SDS011;29309;42.682;23.372;2023-01-16T09:22:38;62.70;;;23.90;;
43710;SDS011;29309;42.682;23.372;2023-01-16T09:25:05;58.03;;;23.73;;
43710;SDS011;29309;42.682;23.372;2023-01-16T09:27:30;48.40;;;21.25;;
43710;SDS011;29309;42.682;23.372;2023-01-16T09:29:56;50.22;;;21.13;;
43710;SDS011;29309;42.682;23.372;2023-01-16T09:32:21;57.60;;;22.88;;
43710;SDS011;29309;42.682;23.372;2023-01-16T09:34:47;54.53;;;20.08;;
43710;SDS011;29309;42.682;23.372;2023-01-16T09:37:12;40.70;;;18.25;;
43710;SDS011;29309;42.682;23.372;2023-01-16T09:39:38;36.67;;;16.35;;
43710;SDS011;29309;42.682;23.372;2023-01-16T09:42:12;34.20;;;15.30;;
43710;SDS011;29309;42.682;23.372;2023-01-16T09:45:17;35.00;;;14.10;;
43710;SDS011;29309;42.682;23.372;2023-01-16T09:50:44;32.22;;;15.75;;
43710;SDS011;29309;42.682;23.372;2023-01-16T09:53:56;35.25;;;15.35;;
43710;SDS011;29309;42.682;23.372;2023-01-16T09:56:41;29.73;;;14.43;;
43710;SDS011;29309;42.682;23.372;2023-01-16T09:59:40;33.70;;;16.00;;
43710;SDS011;29309;42.682;23.372;2023-01-16T10:02:23;35.95;;;16.88;;
43710;SDS011;29309;42.682;23.372;2023-01-16T10:04:51;38.15;;;17.48;;
43710;SDS011;29309;42.682;23.372;2023-01-16T10:19:03;34.30;;;17.10;;
43710;SDS011;29309;42.682;23.372;2023-01-16T10:29:33;35.75;;;17.00;;
43710;SDS011;29309;42.682;23.372;2023-01-16T10:32:35;34.75;;;16.20;;
43710;SDS011;29309;42.682;23.372;2023-01-16T10:35:09;35.55;;;16.60;;
43710;SDS011;29309;42.682;23.372;2023-01-16T10:37:41;34.15;;;16.92;;
43710;SDS011;29309;42.682;23.372;2023-01-16T10:40:14;39.88;;;17.00;;
43710;SDS011;29309;42.682;23.372;2023-01-16T10:42:43;34.10;;;16.23;;
43710;SDS011;29309;42.682;23.372;2023-01-16T10:45:32;32.78;;;15.25;;
43710;SDS011;29309;42.682;23.372;2023-01-16T10:48:18;30.55;;;16.50;;
43710;SDS011;29309;42.682;23.372;2023-01-16T10:51:02;40.85;;;18.10;;
43710;SDS011;29309;42.682;23.372;2023-01-16T10:53:29;37.83;;;17.92;;
43710;SDS011;29309;42.682;23.372;2023-01-16T10:55:57;34.88;;;17.45;;
43710;SDS011;29309;42.682;23.372;2023-01-16T11:01:08;37.65;;;18.50;;
43710;SDS011;29309;42.682;23.372;2023-01-16T11:03:39;38.30;;;18.17;;
43710;SDS011;29309;42.682;23.372;2023-01-16T11:06:18;39.58;;;18.52;;
43710;SDS011;29309;42.682;23.372;2023-01-16T11:08:47;37.97;;;18.60;;
43710;SDS011;29309;42.682;23.372;2023-01-16T11:11:14;32.45;;;15.55;;
43710;SDS011;29309;42.682;23.372;2023-01-16T11:14:00;39.50;;;14.82;;
43710;SDS011;29309;42.682;23.372;2023-01-16T11:16:48;30.02;;;13.75;;
43710;SDS011;29309;42.682;23.372;2023-01-16T11:19:43;33.70;;;13.73;;
43710;SDS011;29309;42.682;23.372;2023-01-16T11:22:21;27.67;;;13.65;;
43710;SDS011;29309;42.682;23.372;2023-01-16T11:24:50;34.70;;;14.93;;
43710;SDS011;29309;42.682;23.372;2023-01-16T11:27:22;32.65;;;15.02;;
43710;SDS011;29309;42.682;23.372;2023-01-16T11:29:51;31.95;;;14.65;;
43710;SDS011;29309;42.682;23.372;2023-01-16T11:32:18;35.03;;;15.32;;
43710;SDS011;29309;42.682;23.372;2023-01-16T11:34:50;35.40;;;15.57;;
43710;SDS011;29309;42.682;23.372;2023-01-16T11:37:19;36.70;;;15.00;;
43710;SDS011;29309;42.682;23.372;2023-01-16T11:39:47;33.08;;;15.88;;
43710;SDS011;29309;42.682;23.372;2023-01-16T11:42:16;39.88;;;16.40;;
43710;SDS011;29309;42.682;23.372;2023-01-16T11:45:03;28.38;;;14.82;;
43710;SDS011;29309;42.682;23.372;2023-01-16T11:47:58;33.17;;;16.58;;
43710;SDS011;29309;42.682;23.372;2023-01-16T11:50:47;32.10;;;15.77;;
43710;SDS011;29309;42.682;23.372;2023-01-16T11:53:15;34.13;;;16.73;;
43710;SDS011;29309;42.682;23.372;2023-01-16T12:04:55;32.25;;;15.48;;
43710;SDS011;29309;42.682;23.372;2023-01-16T12:13:21;34.75;;;13.90;;
43710;SDS011;29309;42.682;23.372;2023-01-16T12:19:00;31.38;;;15.05;;
43710;SDS011;29309;42.682;23.372;2023-01-16T12:25:08;26.02;;;13.70;;
43710;SDS011;29309;42.682;23.372;2023-01-16T12:33:35;28.23;;;13.60;;
43710;SDS011;29309;42.682;23.372;2023-01-16T12:36:14;27.17;;;14.48;;
43710;SDS011;29309;42.682;23.372;2023-01-16T12:38:53;21.25;;;12.02;;
43710;SDS011;29309;42.682;23.372;2023-01-16T12:41:28;20.70;;;11.68;;
43710;SDS011;29309;42.682;23.372;2023-01-16T12:50:55;20.73;;;10.32;;
43710;SDS011;29309;42.682;23.372;2023-01-16T12:58:59;23.48;;;9.55;;
43710;SDS011;29309;42.682;23.372;2023-01-16T13:01:51;16.42;;;9.15;;
43710;SDS011;29309;42.682;23.372;2023-01-16T13:06:59;19.42;;;10.40;;
43710;SDS011;29309;42.682;23.372;2023-01-16T13:15:17;13.75;;;8.40;;
43710;SDS011;29309;42.682;23.372;2023-01-16T13:17:49;16.33;;;7.88;;
43710;SDS011;29309;42.682;23.372;2023-01-16T13:20:21;21.27;;;8.63;;
43710;SDS011;29309;42.682;23.372;2023-01-16T13:25:30;19.13;;;8.10;;
43710;SDS011;29309;42.682;23.372;2023-01-16T13:28:02;14.27;;;8.07;;
43710;SDS011;29309;42.682;23.372;2023-01-16T13:30:35;17.90;;;8.93;;
43710;SDS011;29309;42.682;23.372;2023-01-16T13:33:02;20.55;;;9.27;;
43710;SDS011;29309;42.682;23.372;2023-01-16T13:38:26;17.85;;;9.27;;
43710;SDS011;29309;42.682;23.372;2023-01-16T13:41:29;17.65;;;9.32;;
43710;SDS011;29309;42.682;23.372;2023-01-16T13:44:01;19.58;;;9.45;;
43710;SDS011;29309;42.682;23.372;2023-01-16T13:47:03;20.75;;;9.93;;
43710;SDS011;29309;42.682;23.372;2023-01-16T13:49:31;22.50;;;11.55;;
43710;SDS011;29309;42.682;23.372;2023-01-16T13:51:56;20.05;;;10.13;;
43710;SDS011;29309;42.682;23.372;2023-01-16T13:54:34;21.92;;;11.52;;
43710;SDS011;29309;42.682;23.372;2023-01-16T13:57:02;21.48;;;10.20;;
43710;SDS011;29309;42.682;23.372;2023-01-16T13:59:55;19.25;;;9.88;;
43710;SDS011;29309;42.682;23.372;2023-01-16T14:02:25;24.92;;;10.50;;
43710;SDS011;29309;42.682;23.372;2023-01-16T14:07:47;21.38;;;8.85;;
43710;SDS011;29309;42.682;23.372;2023-01-16T14:15:56;20.38;;;9.95;;
43710;SDS011;29309;42.682;23.372;2023-01-16T14:24:36;28.95;;;13.05;;
43710;SDS011;29309;42.682;23.372;2023-01-16T14:26:45;32.85;;;13.07;;
43710;SDS011;29309;42.682;23.372;2023-01-16T14:29:19;29.48;;;14.27;;
43710;SDS011;29309;42.682;23.372;2023-01-16T14:34:26;26.38;;;12.88;;
43710;SDS011;29309;42.682;23.372;2023-01-16T14:37:01;24.83;;;11.70;;
43710;SDS011;29309;42.682;23.372;2023-01-16T14:39:31;34.25;;;13.32;;
43710;SDS011;29309;42.682;23.372;2023-01-16T14:42:01;22.83;;;10.48;;
43710;SDS011;29309;42.682;23.372;2023-01-16T14:54:08;21.40;;;9.60;;
43710;SDS011;29309;42.682;23.372;2023-01-16T14:57:03;21.00;;;10.88;;
43710;SDS011;29309;42.682;23.372;2023-01-16T15:02:26;29.92;;;11.63;;
43710;SDS011;29309;42.682;23.372;2023-01-16T15:10:09;25.05;;;12.35;;
43710;SDS011;29309;42.682;23.372;2023-01-16T15:12:41;25.98;;;11.75;;
43710;SDS011;29309;42.682;23.372;2023-01-16T15:15:25;22.83;;;11.95;;
43710;SDS011;29309;42.682;23.372;2023-01-16T15:17:54;23.33;;;11.65;;
43710;SDS011;29309;42.682;23.372;2023-01-16T15:20:41;22.48;;;10.90;;
43710;SDS011;29309;42.682;23.372;2023-01-16T15:23:27;22.35;;;10.13;;
43710;SDS011;29309;42.682;23.372;2023-01-16T15:26:01;24.17;;;11.45;;
43710;SDS011;29309;42.682;23.372;2023-01-16T15:31:38;27.00;;;11.88;;
43710;SDS011;29309;42.682;23.372;2023-01-16T15:36:38;32.67;;;11.75;;
43710;SDS011;29309;42.682;23.372;2023-01-16T15:39:21;23.67;;;10.63;;
43710;SDS011;29309;42.682;23.372;2023-01-16T15:41:54;25.33;;;12.50;;
43710;SDS011;29309;42.682;23.372;2023-01-16T15:44:48;22.48;;;10.43;;
43710;SDS011;29309;42.682;23.372;2023-01-16T15:52:53;25.73;;;12.82;;
43710;SDS011;29309;42.682;23.372;2023-01-16T15:55:30;22.30;;;11.65;;
43710;SDS011;29309;42.682;23.372;2023-01-16T15:58:02;27.17;;;13.30;;
43710;SDS011;29309;42.682;23.372;2023-01-16T16:00:33;29.88;;;11.70;;
43710;SDS011;29309;42.682;23.372;2023-01-16T16:03:11;26.77;;;11.45;;
43710;SDS011;29309;42.682;23.372;2023-01-16T16:05:45;21.83;;;11.60;;
43710;SDS011;29309;42.682;23.372;2023-01-16T16:08:20;28.52;;;12.90;;
43710;SDS011;29309;42.682;23.372;2023-01-16T16:10:50;24.92;;;12.50;;
43710;SDS011;29309;42.682;23.372;2023-01-16T16:13:36;23.60;;;11.40;;
43710;SDS011;29309;42.682;23.372;2023-01-16T16:16:03;26.05;;;12.77;;
43710;SDS011;29309;42.682;23.372;2023-01-16T16:18:59;24.75;;;11.88;;
43710;SDS011;29309;42.682;23.372;2023-01-16T16:21:28;23.00;;;10.63;;
43710;SDS011;29309;42.682;23.372;2023-01-16T16:24:02;24.25;;;11.32;;
43710;SDS011;29309;42.682;23.372;2023-01-16T16:26:37;24.55;;;11.88;;
43710;SDS011;29309;42.682;23.372;2023-01-16T16:29:14;26.08;;;12.35;;
43710;SDS011;29309;42.682;23.372;2023-01-16T16:31:44;23.05;;;11.70;;
43710;SDS011;29309;42.682;23.372;2023-01-16T16:34:15;23.40;;;12.00;;
43710;SDS011;29309;42.682;23.372;2023-01-16T16:36:56;22.83;;;10.43;;
43710;SDS011;29309;42.682;23.372;2023-01-16T16:47:36;24.48;;;11.77;;
43710;SDS011;29309;42.682;23.372;2023-01-16T16:52:52;24.05;;;11.40;;
43710;SDS011;29309;42.682;23.372;2023-01-16T16:55:40;23.15;;;11.30;;
43710;SDS011;29309;42.682;23.372;2023-01-16T16:58:17;22.98;;;9.55;;
43710;SDS011;29309;42.682;23.372;2023-01-16T17:00:45;22.52;;;11.50;;
43710;SDS011;29309;42.682;23.372;2023-01-16T17:05:46;29.45;;;12.82;;
43710;SDS011;29309;42.682;23.372;2023-01-16T17:08:24;26.30;;;12.43;;
43710;SDS011;29309;42.682;23.372;2023-01-16T17:10:53;24.52;;;11.68;;
43710;SDS011;29309;42.682;23.372;2023-01-16T17:13:20;32.80;;;13.85;;
43710;SDS011;29309;42.682;23.372;2023-01-16T17:15:47;23.80;;;11.43;;
43710;SDS011;29309;42.682;23.372;2023-01-16T17:18:16;39.40;;;14.45;;
43710;SDS011;29309;42.682;23.372;2023-01-16T17:20:42;24.33;;;11.43;;
43710;SDS011;29309;42.682;23.372;2023-01-16T17:23:09;27.98;;;12.35;;
43710;SDS011;29309;42.682;23.372;2023-01-16T17:25:36;27.67;;;12.73;;
43710;SDS011;29309;42.682;23.372;2023-01-16T17:28:02;25.20;;;12.20;;
43710;SDS011;29309;42.682;23.372;2023-01-16T17:30:27;30.90;;;12.68;;
43710;SDS011;29309;42.682;23.372;2023-01-16T17:33:05;29.35;;;13.93;;
43710;SDS011;29309;42.682;23.372;2023-01-16T17:35:40;26.90;;;12.90;;
43710;SDS011;29309;42.682;23.372;2023-01-16T17:38:11;30.70;;;13.43;;
43710;SDS011;29309;42.682;23.372;2023-01-16T17:40:41;31.40;;;13.90;;
43710;SDS011;29309;42.682;23.372;2023-01-16T17:43:17;32.63;;;14.15;;
43710;SDS011;29309;42.682;23.372;2023-01-16T17:46:11;34.28;;;16.30;;